KGLW/GLW METAR and TAF weather

Enter ICAO airport designator
Station Type Date Time Source
KGLW METAR 2021/02/25 15:55 UTC NOAA

KGLW 251555Z AUTO 00000KT 10SM CLR 06/01 A3033 RMK AO2 T00630012


Station Type Date Time Source
KGLW Decoded METAR 2021/02/25 15:55 UTC NOAA

Glasgow, Glasgow Municipal Airport, KY, United States (KGLW) 37-01-54N 085-57-13W
Feb 25, 2021 - 10:55 AM EST / 2021.02.25 1555 UTC
Wind: Calm:0
Visibility: 10 mile(s):0
Sky conditions: clear
Temperature: 43.3 F (6.3 C)
Dew Point: 34.2 F (1.2 C)
Relative Humidity: 69%
Pressure (altimeter): 30.33 in. Hg (1027 hPa)
ob: KGLW 251555Z AUTO 00000KT 10SM CLR 06/01 A3033 RMK AO2 T00630012
cycle: 16

Station Type Date Time Source
KGLW TAF UTC NOAA

Error!

Example: see airport list